sensor_id;sensor_type;location;lat;lon;timestamp;pressure;altitude;pressure_sealevel;temperature;humidity
30516;BME280;17297;54.022;10.760;2023-02-18T00:00:59;101287.00;;;10.16;62.20
30516;BME280;17297;54.022;10.760;2023-02-18T00:03:28;101295.25;;;10.15;61.92
30516;BME280;17297;54.022;10.760;2023-02-18T00:05:54;101290.88;;;10.14;61.96
30516;BME280;17297;54.022;10.760;2023-02-18T00:08:20;101297.28;;;10.13;62.03
30516;BME280;17297;54.022;10.760;2023-02-18T00:10:46;101312.59;;;10.12;61.90
30516;BME280;17297;54.022;10.760;2023-02-18T00:13:11;101314.59;;;10.10;62.09
30516;BME280;17297;54.022;10.760;2023-02-18T00:15:37;101305.50;;;10.11;61.88
30516;BME280;17297;54.022;10.760;2023-02-18T00:18:03;101308.41;;;10.10;61.96
30516;BME280;17297;54.022;10.760;2023-02-18T00:20:29;101312.94;;;10.09;62.07
30516;BME280;17297;54.022;10.760;2023-02-18T00:22:54;101294.28;;;10.08;61.86
30516;BME280;17297;54.022;10.760;2023-02-18T00:25:20;101304.19;;;10.07;62.06
30516;BME280;17297;54.022;10.760;2023-02-18T00:27:45;101307.91;;;10.06;62.14
30516;BME280;17297;54.022;10.760;2023-02-18T00:30:11;101301.88;;;10.04;62.12
30516;BME280;17297;54.022;10.760;2023-02-18T00:32:36;101305.56;;;10.03;62.12
30516;BME280;17297;54.022;10.760;2023-02-18T00:35:02;101311.94;;;10.02;61.94
30516;BME280;17297;54.022;10.760;2023-02-18T00:37:28;101305.94;;;10.00;62.11
30516;BME280;17297;54.022;10.760;2023-02-18T00:39:53;101313.13;;;10.00;62.05
30516;BME280;17297;54.022;10.760;2023-02-18T00:42:18;101317.66;;;9.99;61.89
30516;BME280;17297;54.022;10.760;2023-02-18T00:44:44;101312.28;;;9.99;62.15
30516;BME280;17297;54.022;10.760;2023-02-18T00:47:09;101314.97;;;9.99;61.85
30516;BME280;17297;54.022;10.760;2023-02-18T00:49:34;101321.19;;;10.00;62.02
30516;BME280;17297;54.022;10.760;2023-02-18T00:52:02;101317.66;;;9.99;62.17
30516;BME280;17297;54.022;10.760;2023-02-18T00:54:27;101320.34;;;9.99;61.93
30516;BME280;17297;54.022;10.760;2023-02-18T00:56:53;101328.41;;;9.99;61.88
30516;BME280;17297;54.022;10.760;2023-02-18T00:59:18;101332.97;;;9.99;62.01
30516;BME280;17297;54.022;10.760;2023-02-18T01:01:44;101338.34;;;9.99;62.04
30516;BME280;17297;54.022;10.760;2023-02-18T01:04:09;101331.31;;;9.98;61.87
30516;BME280;17297;54.022;10.760;2023-02-18T01:06:34;101340.19;;;9.98;62.15
30516;BME280;17297;54.022;10.760;2023-02-18T01:09:01;101335.84;;;9.97;62.00
30516;BME280;17297;54.022;10.760;2023-02-18T01:11:28;101347.44;;;9.98;62.15
30516;BME280;17297;54.022;10.760;2023-02-18T01:13:53;101349.28;;;9.97;62.02
30516;BME280;17297;54.022;10.760;2023-02-18T01:16:19;101345.91;;;9.95;62.11
30516;BME280;17297;54.022;10.760;2023-02-18T01:18:44;101348.59;;;9.95;62.08
30516;BME280;17297;54.022;10.760;2023-02-18T01:21:10;101351.28;;;9.95;62.18
30516;BME280;17297;54.022;10.760;2023-02-18T01:23:37;101338.88;;;9.94;62.09
30516;BME280;17297;54.022;10.760;2023-02-18T01:26:03;101342.41;;;9.94;62.23
30516;BME280;17297;54.022;10.760;2023-02-18T01:28:29;101351.28;;;9.95;62.21
30516;BME280;17297;54.022;10.760;2023-02-18T01:30:54;101347.78;;;9.94;62.32
30516;BME280;17297;54.022;10.760;2023-02-18T01:33:20;101344.25;;;9.94;62.12
30516;BME280;17297;54.022;10.760;2023-02-18T01:35:45;101341.56;;;9.94;62.23
30516;BME280;17297;54.022;10.760;2023-02-18T01:38:10;101347.78;;;9.94;62.30
30516;BME280;17297;54.022;10.760;2023-02-18T01:40:44;101342.56;;;9.93;62.09
30516;BME280;17297;54.022;10.760;2023-02-18T01:43:11;101338.22;;;9.92;62.28
30516;BME280;17297;54.022;10.760;2023-02-18T01:46:18;101346.06;;;9.93;62.38
30516;BME280;17297;54.022;10.760;2023-02-18T01:48:50;101344.41;;;9.92;62.35
30516;BME280;17297;54.022;10.760;2023-02-18T01:51:23;101351.66;;;9.92;62.13
30516;BME280;17297;54.022;10.760;2023-02-18T01:56:23;101355.50;;;9.89;62.01
30516;BME280;17297;54.022;10.760;2023-02-18T01:58:50;101349.31;;;9.89;62.00
30516;BME280;17297;54.022;10.760;2023-02-18T02:01:17;101352.00;;;9.89;61.99
30516;BME280;17297;54.022;10.760;2023-02-18T02:03:42;101350.13;;;9.89;62.03
30516;BME280;17297;54.022;10.760;2023-02-18T02:06:18;101344.75;;;9.89;62.25
30516;BME280;17297;54.022;10.760;2023-02-18T02:08:50;101342.06;;;9.89;61.88
30516;BME280;17297;54.022;10.760;2023-02-18T02:17:33;101335.19;;;9.87;62.00
30516;BME280;17297;54.022;10.760;2023-02-18T02:23:25;101321.75;;;9.87;62.26
30516;BME280;17297;54.022;10.760;2023-02-18T02:32:25;101338.22;;;9.84;62.27
30516;BME280;17297;54.022;10.760;2023-02-18T02:37:41;101338.22;;;9.84;62.11
30516;BME280;17297;54.022;10.760;2023-02-18T02:43:06;101333.69;;;9.84;61.84
30516;BME280;17297;54.022;10.760;2023-02-18T02:45:49;101337.22;;;9.85;61.84
30516;BME280;17297;54.022;10.760;2023-02-18T02:53:51;101338.22;;;9.84;61.87
30516;BME280;17297;54.022;10.760;2023-02-18T02:56:20;101323.13;;;9.83;61.73
30516;BME280;17297;54.022;10.760;2023-02-18T02:58:59;101328.50;;;9.83;61.96
30516;BME280;17297;54.022;10.760;2023-02-18T03:04:16;101334.06;;;9.81;61.74
30516;BME280;17297;54.022;10.760;2023-02-18T03:07:03;101336.91;;;9.80;61.84
30516;BME280;17297;54.022;10.760;2023-02-18T03:10:03;101344.13;;;9.79;62.07
30516;BME280;17297;54.022;10.760;2023-02-18T03:12:46;101347.84;;;9.78;62.04
30516;BME280;17297;54.022;10.760;2023-02-18T03:15:24;101347.84;;;9.78;61.94
30516;BME280;17297;54.022;10.760;2023-02-18T03:20:34;101345.50;;;9.75;61.85
30516;BME280;17297;54.022;10.760;2023-02-18T03:23:03;101339.44;;;9.73;61.87
30516;BME280;17297;54.022;10.760;2023-02-18T03:25:32;101334.22;;;9.71;61.85
30516;BME280;17297;54.022;10.760;2023-02-18T03:28:02;101335.44;;;9.69;61.73
30516;BME280;17297;54.022;10.760;2023-02-18T03:30:40;101334.78;;;9.67;62.00
30516;BME280;17297;54.022;10.760;2023-02-18T03:33:06;101336.28;;;9.69;61.84
30516;BME280;17297;54.022;10.760;2023-02-18T03:35:35;101342.34;;;9.63;61.76
30516;BME280;17297;54.022;10.760;2023-02-18T03:41:05;101354.41;;;9.59;61.95
30516;BME280;17297;54.022;10.760;2023-02-18T03:43:31;101345.72;;;9.57;62.08
30516;BME280;17297;54.022;10.760;2023-02-18T03:45:58;101336.97;;;9.55;62.10
30516;BME280;17297;54.022;10.760;2023-02-18T03:48:25;101336.97;;;9.55;62.00
30516;BME280;17297;54.022;10.760;2023-02-18T03:50:51;101339.66;;;9.55;61.87
30516;BME280;17297;54.022;10.760;2023-02-18T03:53:16;101344.19;;;9.55;62.09
30516;BME280;17297;54.022;10.760;2023-02-18T03:55:42;101336.16;;;9.55;62.14
30516;BME280;17297;54.022;10.760;2023-02-18T03:58:07;101344.19;;;9.55;62.02
30516;BME280;17297;54.022;10.760;2023-02-18T04:00:32;101344.19;;;9.55;62.13
30516;BME280;17297;54.022;10.760;2023-02-18T04:02:58;101339.66;;;9.55;61.99
30516;BME280;17297;54.022;10.760;2023-02-18T04:05:23;101344.00;;;9.56;62.12
30516;BME280;17297;54.022;10.760;2023-02-18T04:07:48;101334.13;;;9.57;62.28
30516;BME280;17297;54.022;10.760;2023-02-18T04:10:14;101323.41;;;9.57;62.35
30516;BME280;17297;54.022;10.760;2023-02-18T04:12:39;101325.88;;;9.58;62.20
30516;BME280;17297;54.022;10.760;2023-02-18T04:15:05;101324.88;;;9.59;62.40
30516;BME280;17297;54.022;10.760;2023-02-18T04:17:32;101326.56;;;9.60;62.45
30516;BME280;17297;54.022;10.760;2023-02-18T04:19:57;101329.91;;;9.62;62.42
30516;BME280;17297;54.022;10.760;2023-02-18T04:22:22;101323.53;;;9.63;62.61
30516;BME280;17297;54.022;10.760;2023-02-18T04:24:48;101314.66;;;9.63;62.60
30516;BME280;17297;54.022;10.760;2023-02-18T04:27:13;101304.72;;;9.63;62.66
30516;BME280;17297;54.022;10.760;2023-02-18T04:29:41;101305.38;;;9.65;62.55
30516;BME280;17297;54.022;10.760;2023-02-18T04:32:07;101303.72;;;9.64;62.66
30516;BME280;17297;54.022;10.760;2023-02-18T04:34:32;101314.31;;;9.66;62.89
30516;BME280;17297;54.022;10.760;2023-02-18T04:36:58;101307.91;;;9.67;62.80
30516;BME280;17297;54.022;10.760;2023-02-18T04:39:23;101300.69;;;9.67;62.80
30516;BME280;17297;54.022;10.760;2023-02-18T04:41:49;101307.91;;;9.67;63.06
30516;BME280;17297;54.022;10.760;2023-02-18T04:44:14;101307.91;;;9.67;63.04
30516;BME280;17297;54.022;10.760;2023-02-18T04:46:39;101292.63;;;9.67;62.89
30516;BME280;17297;54.022;10.760;2023-02-18T04:49:05;101306.06;;;9.67;63.09
30516;BME280;17297;54.022;10.760;2023-02-18T04:51:30;101294.28;;;9.68;63.18
30516;BME280;17297;54.022;10.760;2023-02-18T04:53:55;101294.13;;;9.70;63.04
30516;BME280;17297;54.022;10.760;2023-02-18T04:56:21;101303.03;;;9.70;63.19
30516;BME280;17297;54.022;10.760;2023-02-18T04:58:46;101299.31;;;9.71;63.21
30516;BME280;17297;54.022;10.760;2023-02-18T05:01:11;101295.78;;;9.71;63.29
30516;BME280;17297;54.022;10.760;2023-02-18T05:03:37;101290.25;;;9.73;63.43
30516;BME280;17297;54.022;10.760;2023-02-18T05:06:02;101299.97;;;9.74;63.16
30516;BME280;17297;54.022;10.760;2023-02-18T05:08:28;101282.00;;;9.74;63.38
30516;BME280;17297;54.022;10.760;2023-02-18T05:10:53;101279.16;;;9.76;63.31
30516;BME280;17297;54.022;10.760;2023-02-18T05:13:19;101275.66;;;9.75;63.44
30516;BME280;17297;54.022;10.760;2023-02-18T05:15:44;101266.56;;;9.76;63.32
30516;BME280;17297;54.022;10.760;2023-02-18T05:18:09;101258.50;;;9.76;63.31
30516;BME280;17297;54.022;10.760;2023-02-18T05:20:35;101264.72;;;9.77;63.43
30516;BME280;17297;54.022;10.760;2023-02-18T05:23:00;101265.72;;;9.76;63.39
30516;BME280;17297;54.022;10.760;2023-02-18T05:25:26;101268.41;;;9.76;63.43
30516;BME280;17297;54.022;10.760;2023-02-18T05:27:51;101270.28;;;9.75;63.47
30516;BME280;17297;54.022;10.760;2023-02-18T05:30:16;101281.19;;;9.74;63.45
30516;BME280;17297;54.022;10.760;2023-02-18T05:32:42;101264.38;;;9.71;63.56
30516;BME280;17297;54.022;10.760;2023-02-18T05:35:07;101255.50;;;9.71;63.27
30516;BME280;17297;54.022;10.760;2023-02-18T05:37:33;101259.38;;;9.68;63.46
30516;BME280;17297;54.022;10.760;2023-02-18T05:39:58;101255.19;;;9.66;63.43
30516;BME280;17297;54.022;10.760;2023-02-18T05:42:24;101255.34;;;9.64;63.04
30516;BME280;17297;54.022;10.760;2023-02-18T05:44:49;101259.41;;;9.60;63.23
30516;BME280;17297;54.022;10.760;2023-02-18T05:47:14;101267.81;;;9.57;63.07
30516;BME280;17297;54.022;10.760;2023-02-18T05:49:41;101260.94;;;9.55;62.98
30516;BME280;17297;54.022;10.760;2023-02-18T05:52:07;101261.09;;;9.53;62.93
30516;BME280;17297;54.022;10.760;2023-02-18T05:54:33;101265.81;;;9.51;62.91
30516;BME280;17297;54.022;10.760;2023-02-18T05:56:59;101267.84;;;9.49;62.93
30516;BME280;17297;54.022;10.760;2023-02-18T05:59:25;101268.03;;;9.47;62.89
30516;BME280;17297;54.022;10.760;2023-02-18T06:01:50;101267.19;;;9.47;62.84
30516;BME280;17297;54.022;10.760;2023-02-18T06:04:15;101262.81;;;9.46;62.63
30516;BME280;17297;54.022;10.760;2023-02-18T06:06:41;101246.69;;;9.46;62.80
30516;BME280;17297;54.022;10.760;2023-02-18T06:09:08;101248.75;;;9.44;62.58
30516;BME280;17297;54.022;10.760;2023-02-18T06:11:34;101232.97;;;9.41;62.67
30516;BME280;17297;54.022;10.760;2023-02-18T06:13:59;101240.16;;;9.40;62.81
30516;BME280;17297;54.022;10.760;2023-02-18T06:16:25;101235.81;;;9.39;62.79
30516;BME280;17297;54.022;10.760;2023-02-18T06:18:51;101238.69;;;9.38;62.81
30516;BME280;17297;54.022;10.760;2023-02-18T06:21:16;101237.00;;;9.37;62.81
30516;BME280;17297;54.022;10.760;2023-02-18T06:23:42;101237.00;;;9.37;62.86
30516;BME280;17297;54.022;10.760;2023-02-18T06:26:08;101229.97;;;9.36;62.71
30516;BME280;17297;54.022;10.760;2023-02-18T06:28:33;101228.28;;;9.35;62.91
30516;BME280;17297;54.022;10.760;2023-02-18T06:30:58;101223.75;;;9.35;62.90
30516;BME280;17297;54.022;10.760;2023-02-18T06:33:24;101225.59;;;9.35;62.79
30516;BME280;17297;54.022;10.760;2023-02-18T06:35:57;101229.97;;;9.36;63.14
30516;BME280;17297;54.022;10.760;2023-02-18T06:38:23;101230.97;;;9.35;62.93
30516;BME280;17297;54.022;10.760;2023-02-18T06:40:49;101226.25;;;9.37;63.00
30516;BME280;17297;54.022;10.760;2023-02-18T06:43:14;101220.88;;;9.37;63.13
30516;BME280;17297;54.022;10.760;2023-02-18T06:45:39;101220.72;;;9.38;63.28
30516;BME280;17297;54.022;10.760;2023-02-18T06:48:05;101230.44;;;9.39;63.18
30516;BME280;17297;54.022;10.760;2023-02-18T06:50:31;101224.91;;;9.41;63.40
30516;BME280;17297;54.022;10.760;2023-02-18T06:52:56;101224.56;;;9.44;63.29
30516;BME280;17297;54.022;10.760;2023-02-18T06:55:21;101224.38;;;9.45;63.41
30516;BME280;17297;54.022;10.760;2023-02-18T06:57:47;101223.19;;;9.48;63.44
30516;BME280;17297;54.022;10.760;2023-02-18T07:00:12;101224.88;;;9.49;63.55
30516;BME280;17297;54.022;10.760;2023-02-18T07:02:38;101214.78;;;9.51;63.71
30516;BME280;17297;54.022;10.760;2023-02-18T07:05:04;101212.75;;;9.53;63.70
30516;BME280;17297;54.022;10.760;2023-02-18T07:07:29;101207.03;;;9.56;63.70
30516;BME280;17297;54.022;10.760;2023-02-18T07:09:55;101206.03;;;9.57;63.79
30516;BME280;17297;54.022;10.760;2023-02-18T07:12:20;101204.00;;;9.59;63.75
30516;BME280;17297;54.022;10.760;2023-02-18T07:14:46;101211.91;;;9.61;63.78
30516;BME280;17297;54.022;10.760;2023-02-18T07:17:12;101207.19;;;9.63;63.85
30516;BME280;17297;54.022;10.760;2023-02-18T07:19:38;101207.00;;;9.64;64.07
30516;BME280;17297;54.022;10.760;2023-02-18T07:22:03;101203.28;;;9.65;63.96
30516;BME280;17297;54.022;10.760;2023-02-18T07:24:28;101193.22;;;9.67;64.00
30516;BME280;17297;54.022;10.760;2023-02-18T07:26:54;101192.19;;;9.68;64.05
30516;BME280;17297;54.022;10.760;2023-02-18T07:29:19;101196.38;;;9.71;64.16
30516;BME280;17297;54.022;10.760;2023-02-18T07:31:44;101188.34;;;9.71;63.95
30516;BME280;17297;54.022;10.760;2023-02-18T07:34:10;101181.09;;;9.71;64.00
30516;BME280;17297;54.022;10.760;2023-02-18T07:36:35;101185.47;;;9.73;64.28
30516;BME280;17297;54.022;10.760;2023-02-18T07:39:00;101179.09;;;9.74;64.25
30516;BME280;17297;54.022;10.760;2023-02-18T07:41:26;101179.09;;;9.74;64.26
30516;BME280;17297;54.022;10.760;2023-02-18T07:43:51;101180.75;;;9.75;64.26
30516;BME280;17297;54.022;10.760;2023-02-18T07:46:16;101186.13;;;9.75;64.45
30516;BME280;17297;54.022;10.760;2023-02-18T07:48:42;101186.13;;;9.75;64.53
30516;BME280;17297;54.022;10.760;2023-02-18T07:51:09;101181.59;;;9.75;64.43
30516;BME280;17297;54.022;10.760;2023-02-18T07:53:36;101178.94;;;9.75;64.61
30516;BME280;17297;54.022;10.760;2023-02-18T07:56:01;101184.09;;;9.77;64.74
30516;BME280;17297;54.022;10.760;2023-02-18T07:58:30;101175.22;;;9.76;64.71
30516;BME280;17297;54.022;10.760;2023-02-18T08:00:56;101168.66;;;9.79;64.77
30516;BME280;17297;54.022;10.760;2023-02-18T08:03:27;101164.28;;;9.78;64.78
30516;BME280;17297;54.022;10.760;2023-02-18T08:05:54;101153.53;;;9.78;64.76
30516;BME280;17297;54.022;10.760;2023-02-18T08:08:22;101150.00;;;9.77;64.80
30516;BME280;17297;54.022;10.760;2023-02-18T08:10:49;101146.31;;;9.78;64.77
30516;BME280;17297;54.022;10.760;2023-02-18T08:13:15;101147.16;;;9.79;64.94
30516;BME280;17297;54.022;10.760;2023-02-18T08:15:41;101137.91;;;9.81;65.09
30516;BME280;17297;54.022;10.760;2023-02-18T08:18:08;101129.00;;;9.81;65.08
30516;BME280;17297;54.022;10.760;2023-02-18T08:20:38;101132.34;;;9.83;65.17
30516;BME280;17297;54.022;10.760;2023-02-18T08:23:04;101134.00;;;9.84;65.28
30516;BME280;17297;54.022;10.760;2023-02-18T08:25:31;101125.94;;;9.84;65.04
30516;BME280;17297;54.022;10.760;2023-02-18T08:27:56;101123.94;;;9.86;65.14
30516;BME280;17297;54.022;10.760;2023-02-18T08:30:22;101125.78;;;9.85;65.21
30516;BME280;17297;54.022;10.760;2023-02-18T08:32:47;101123.09;;;9.85;65.25
30516;BME280;17297;54.022;10.760;2023-02-18T08:35:13;101122.91;;;9.87;65.33
30516;BME280;17297;54.022;10.760;2023-02-18T08:37:38;101118.34;;;9.87;65.43
30516;BME280;17297;54.022;10.760;2023-02-18T08:40:04;101115.66;;;9.87;65.54
30516;BME280;17297;54.022;10.760;2023-02-18T08:42:30;101111.31;;;9.86;65.58
30516;BME280;17297;54.022;10.760;2023-02-18T08:44:55;101110.50;;;9.86;65.43
30516;BME280;17297;54.022;10.760;2023-02-18T08:47:20;101097.06;;;9.86;65.42
30516;BME280;17297;54.022;10.760;2023-02-18T08:49:46;101093.53;;;9.85;65.51
30516;BME280;17297;54.022;10.760;2023-02-18T08:52:11;101099.91;;;9.84;65.51
30516;BME280;17297;54.022;10.760;2023-02-18T08:54:37;101083.97;;;9.83;65.73
30516;BME280;17297;54.022;10.760;2023-02-18T08:57:02;101080.47;;;9.82;65.72
30516;BME280;17297;54.022;10.760;2023-02-18T08:59:27;101074.25;;;9.82;65.76
30516;BME280;17297;54.022;10.760;2023-02-18T09:01:53;101065.38;;;9.81;65.91
30516;BME280;17297;54.022;10.760;2023-02-18T09:04:18;101051.72;;;9.83;66.02
30516;BME280;17297;54.022;10.760;2023-02-18T09:06:46;101036.63;;;9.82;66.06
30516;BME280;17297;54.022;10.760;2023-02-18T09:09:11;101037.28;;;9.84;66.03
30516;BME280;17297;54.022;10.760;2023-02-18T09:11:37;101036.09;;;9.86;66.08
30516;BME280;17297;54.022;10.760;2023-02-18T09:14:02;101032.19;;;9.89;66.15
30516;BME280;17297;54.022;10.760;2023-02-18T09:16:28;101031.84;;;9.92;66.37
30516;BME280;17297;54.022;10.760;2023-02-18T09:18:55;101037.69;;;9.95;66.43
30516;BME280;17297;54.022;10.760;2023-02-18T09:21:21;101023.88;;;9.99;66.27
30516;BME280;17297;54.022;10.760;2023-02-18T09:23:48;101013.78;;;10.01;66.42
30516;BME280;17297;54.022;10.760;2023-02-18T09:26:16;101009.06;;;10.03;66.46
30516;BME280;17297;54.022;10.760;2023-02-18T09:28:41;101009.91;;;10.03;66.48
30516;BME280;17297;54.022;10.760;2023-02-18T09:31:09;101004.34;;;10.05;66.61
30516;BME280;17297;54.022;10.760;2023-02-18T09:33:41;100997.94;;;10.06;66.66
30516;BME280;17297;54.022;10.760;2023-02-18T09:36:07;100997.75;;;10.07;66.60
30516;BME280;17297;54.022;10.760;2023-02-18T09:38:33;101009.34;;;10.08;66.49
30516;BME280;17297;54.022;10.760;2023-02-18T09:41:00;101011.00;;;10.09;66.49
30516;BME280;17297;54.022;10.760;2023-02-18T09:43:30;101012.03;;;10.08;66.67
30516;BME280;17297;54.022;10.760;2023-02-18T09:45:58;101010.38;;;10.07;66.66
30516;BME280;17297;54.022;10.760;2023-02-18T09:48:27;101004.16;;;10.06;66.73
30516;BME280;17297;54.022;10.760;2023-02-18T09:50:53;100998.78;;;10.06;66.71
30516;BME280;17297;54.022;10.760;2023-02-18T09:53:21;100999.78;;;10.05;66.72
30516;BME280;17297;54.022;10.760;2023-02-18T09:55:47;101002.69;;;10.04;66.72
30516;BME280;17297;54.022;10.760;2023-02-18T09:58:32;100999.31;;;10.02;66.66
30516;BME280;17297;54.022;10.760;2023-02-18T10:01:29;100991.63;;;9.99;66.90
30516;BME280;17297;54.022;10.760;2023-02-18T10:04:02;100994.50;;;9.97;66.68
30516;BME280;17297;54.022;10.760;2023-02-18T10:06:31;100991.34;;;9.93;66.81
30516;BME280;17297;54.022;10.760;2023-02-18T10:09:02;100970.88;;;9.92;66.83
30516;BME280;17297;54.022;10.760;2023-02-18T10:11:32;100955.94;;;9.90;67.02
30516;BME280;17297;54.022;10.760;2023-02-18T10:13:59;100957.78;;;9.89;66.77
30516;BME280;17297;54.022;10.760;2023-02-18T10:16:27;100958.81;;;9.88;66.96
30516;BME280;17297;54.022;10.760;2023-02-18T10:18:56;100956.97;;;9.89;67.20
30516;BME280;17297;54.022;10.760;2023-02-18T10:21:31;100942.69;;;9.88;67.08
30516;BME280;17297;54.022;10.760;2023-02-18T10:24:02;100940.84;;;9.89;67.19
30516;BME280;17297;54.022;10.760;2023-02-18T10:26:33;100920.19;;;9.89;67.18
30516;BME280;17297;54.022;10.760;2023-02-18T10:28:59;100920.00;;;9.91;67.16
30516;BME280;17297;54.022;10.760;2023-02-18T10:31:36;100916.09;;;9.93;67.26
30516;BME280;17297;54.022;10.760;2023-02-18T10:34:12;100908.69;;;9.95;67.46
30516;BME280;17297;54.022;10.760;2023-02-18T10:36:49;100906.66;;;9.98;67.40
30516;BME280;17297;54.022;10.760;2023-02-18T10:39:37;100914.34;;;10.01;67.48
30516;BME280;17297;54.022;10.760;2023-02-18T10:42:39;100901.75;;;10.01;67.41
30516;BME280;17297;54.022;10.760;2023-02-18T10:45:17;100883.97;;;10.00;67.51
30516;BME280;17297;54.022;10.760;2023-02-18T10:48:04;100887.66;;;9.99;67.41
30516;BME280;17297;54.022;10.760;2023-02-18T10:50:43;100887.66;;;9.99;67.23
30516;BME280;17297;54.022;10.760;2023-02-18T10:55:46;100863.81;;;9.96;67.44
30516;BME280;17297;54.022;10.760;2023-02-18T10:58:30;100855.13;;;9.94;67.33
30516;BME280;17297;54.022;10.760;2023-02-18T11:00:57;100861.34;;;9.94;67.24
30516;BME280;17297;54.022;10.760;2023-02-18T11:03:50;100858.81;;;9.93;67.58
30516;BME280;17297;54.022;10.760;2023-02-18T11:06:31;100863.19;;;9.94;67.55
30516;BME280;17297;54.022;10.760;2023-02-18T11:08:58;100867.53;;;9.95;67.53
30516;BME280;17297;54.022;10.760;2023-02-18T11:11:29;100875.59;;;9.95;67.50
30516;BME280;17297;54.022;10.760;2023-02-18T11:14:00;100875.59;;;9.95;67.59
30516;BME280;17297;54.022;10.760;2023-02-18T11:16:44;100877.47;;;9.94;67.61
30516;BME280;17297;54.022;10.760;2023-02-18T11:19:32;100869.56;;;9.93;67.63
30516;BME280;17297;54.022;10.760;2023-02-18T11:22:23;100867.25;;;9.90;67.48
30516;BME280;17297;54.022;10.760;2023-02-18T11:24:56;100869.13;;;9.89;67.45
30516;BME280;17297;54.022;10.760;2023-02-18T11:27:37;100859.78;;;9.85;67.39
30516;BME280;17297;54.022;10.760;2023-02-18T11:32:44;100844.66;;;9.69;67.29
30516;BME280;17297;54.022;10.760;2023-02-18T11:35:22;100842.88;;;9.62;67.40
30516;BME280;17297;54.022;10.760;2023-02-18T11:37:48;100832.88;;;9.56;67.21
30516;BME280;17297;54.022;10.760;2023-02-18T11:40:27;100828.59;;;9.46;67.39
30516;BME280;17297;54.022;10.760;2023-02-18T11:43:06;100828.88;;;9.37;67.33
30516;BME280;17297;54.022;10.760;2023-02-18T11:45:33;100823.41;;;9.30;67.47
30516;BME280;17297;54.022;10.760;2023-02-18T11:48:01;100817.28;;;9.21;67.61
30516;BME280;17297;54.022;10.760;2023-02-18T11:50:30;100817.38;;;9.13;67.59
30516;BME280;17297;54.022;10.760;2023-02-18T11:52:57;100814.75;;;9.05;67.67
30516;BME280;17297;54.022;10.760;2023-02-18T11:55:26;100828.44;;;8.95;67.68
30516;BME280;17297;54.022;10.760;2023-02-18T11:57:59;100836.16;;;8.90;68.01
30516;BME280;17297;54.022;10.760;2023-02-18T12:00:41;100835.22;;;8.83;68.27
30516;BME280;17297;54.022;10.760;2023-02-18T12:06:27;100834.69;;;8.65;68.26
30516;BME280;17297;54.022;10.760;2023-02-18T12:09:00;100844.47;;;8.58;68.44
30516;BME280;17297;54.022;10.760;2023-02-18T12:11:33;100860.44;;;8.51;68.34
30516;BME280;17297;54.022;10.760;2023-02-18T12:14:01;100853.25;;;8.43;68.49
30516;BME280;17297;54.022;10.760;2023-02-18T12:25:54;100882.47;;;8.22;68.79
30516;BME280;17297;54.022;10.760;2023-02-18T12:32:02;100892.50;;;8.28;68.56
30516;BME280;17297;54.022;10.760;2023-02-18T12:34:39;100908.78;;;8.26;68.49
30516;BME280;17297;54.022;10.760;2023-02-18T12:40:16;100913.13;;;8.19;68.71
30516;BME280;17297;54.022;10.760;2023-02-18T12:43:14;100914.00;;;8.20;68.57
30516;BME280;17297;54.022;10.760;2023-02-18T12:51:25;100776.22;;;8.06;68.15
30516;BME280;17297;54.022;10.760;2023-02-18T12:54:22;100789.84;;;7.88;67.99
30516;BME280;17297;54.022;10.760;2023-02-18T13:00:08;100894.00;;;7.75;68.53
30516;BME280;17297;54.022;10.760;2023-02-18T13:11:05;100909.88;;;7.93;68.62
30516;BME280;17297;54.022;10.760;2023-02-18T13:13:39;100914.72;;;7.97;68.52
30516;BME280;17297;54.022;10.760;2023-02-18T13:16:12;100911.69;;;8.00;68.23
30516;BME280;17297;54.022;10.760;2023-02-18T13:21:14;100910.84;;;8.08;68.25
30516;BME280;17297;54.022;10.760;2023-02-18T13:26:35;100928.72;;;8.16;68.52
30516;BME280;17297;54.022;10.760;2023-02-18T13:29:23;100933.75;;;8.19;68.59
30516;BME280;17297;54.022;10.760;2023-02-18T13:34:59;100938.75;;;8.22;68.26
30516;BME280;17297;54.022;10.760;2023-02-18T13:37:50;100947.97;;;8.19;68.29
30516;BME280;17297;54.022;10.760;2023-02-18T13:40:21;100949.00;;;8.18;68.15
30516;BME280;17297;54.022;10.760;2023-02-18T13:42:52;100946.31;;;8.18;68.32
30516;BME280;17297;54.022;10.760;2023-02-18T13:45:31;100928.91;;;8.14;68.16
30516;BME280;17297;54.022;10.760;2023-02-18T13:47:58;100942.47;;;8.13;68.13
30516;BME280;17297;54.022;10.760;2023-02-18T13:50:27;100932.59;;;8.13;68.15
30516;BME280;17297;54.022;10.760;2023-02-18T13:55:53;100949.31;;;8.15;68.39
30516;BME280;17297;54.022;10.760;2023-02-18T13:58:30;100967.94;;;8.17;68.47
30516;BME280;17297;54.022;10.760;2023-02-18T14:01:02;100958.88;;;8.18;68.31
30516;BME280;17297;54.022;10.760;2023-02-18T14:06:00;100961.03;;;8.22;68.31
30516;BME280;17297;54.022;10.760;2023-02-18T14:08:35;100958.53;;;8.21;68.24
30516;BME280;17297;54.022;10.760;2023-02-18T14:16:07;100985.63;;;8.34;68.30
30516;BME280;17297;54.022;10.760;2023-02-18T14:21:17;100993.69;;;8.42;68.44
30516;BME280;17297;54.022;10.760;2023-02-18T14:26:22;101000.69;;;8.51;67.97
30516;BME280;17297;54.022;10.760;2023-02-18T14:28:53;101007.91;;;8.51;68.14
30516;BME280;17297;54.022;10.760;2023-02-18T14:36:51;100978.06;;;8.54;68.12
30516;BME280;17297;54.022;10.760;2023-02-18T14:42:23;100986.06;;;8.62;68.40
30516;BME280;17297;54.022;10.760;2023-02-18T14:45:11;100992.09;;;8.64;68.36
30516;BME280;17297;54.022;10.760;2023-02-18T14:47:43;100996.28;;;8.67;68.29
30516;BME280;17297;54.022;10.760;2023-02-18T14:50:15;101012.00;;;8.70;68.32